createdAt,value
2019-05-18T00:01:32.640Z,0.00
2019-05-18T00:01:59.413Z,0.00
2019-05-18T00:02:59.393Z,0.00
2019-05-18T00:03:59.375Z,0.00
2019-05-18T00:04:59.358Z,0.00
2019-05-18T00:05:59.342Z,0.00
2019-05-18T00:06:59.324Z,0.00
2019-05-18T00:07:59.305Z,0.00
2019-05-18T00:08:59.271Z,0.00
2019-05-18T00:09:59.248Z,0.00
2019-05-18T00:10:59.233Z,0.00
2019-05-18T00:11:59.212Z,0.00
2019-05-18T00:12:59.194Z,0.00
2019-05-18T00:13:59.180Z,0.00
2019-05-18T00:14:59.156Z,0.00
2019-05-18T00:15:59.138Z,0.00
2019-05-18T00:16:59.125Z,0.00
2019-05-18T00:17:59.104Z,0.00
2019-05-18T00:18:59.087Z,0.00
2019-05-18T00:19:59.069Z,0.00
2019-05-18T00:20:59.048Z,0.00
2019-05-18T00:21:59.030Z,0.00
2019-05-18T00:22:59.015Z,0.00
2019-05-18T00:23:59.004Z,0.00
2019-05-18T00:24:58.989Z,0.00
2019-05-18T00:25:58.958Z,0.00
2019-05-18T00:26:58.942Z,0.00
2019-05-18T00:27:58.920Z,0.00
2019-05-18T00:28:58.903Z,0.00
2019-05-18T00:29:58.883Z,0.00
2019-05-18T00:30:58.868Z,0.00
2019-05-18T00:31:58.848Z,0.00
2019-05-18T00:32:58.831Z,0.00
2019-05-18T00:33:58.817Z,0.00
2019-05-18T00:34:58.793Z,0.00
2019-05-18T00:35:58.775Z,0.00
2019-05-18T00:36:58.760Z,0.00
2019-05-18T00:37:58.742Z,0.00
2019-05-18T00:38:58.726Z,0.00
2019-05-18T00:39:58.705Z,0.00
2019-05-18T00:40:58.684Z,0.00
2019-05-18T00:41:58.667Z,0.00
2019-05-18T00:42:58.655Z,0.00
2019-05-18T00:43:58.630Z,0.00
2019-05-18T00:44:58.624Z,0.00
2019-05-18T00:45:58.594Z,0.00
2019-05-18T00:46:58.577Z,0.00
2019-05-18T00:47:58.557Z,0.00
2019-05-18T00:48:58.538Z,0.00
2019-05-18T00:49:58.519Z,0.00
2019-05-18T00:50:58.501Z,0.00
2019-05-18T00:51:58.485Z,0.00
2019-05-18T00:52:58.465Z,0.00
2019-05-18T00:53:58.448Z,0.00
2019-05-18T00:54:58.428Z,0.00
2019-05-18T00:55:58.417Z,0.00
2019-05-18T00:56:58.393Z,0.00
2019-05-18T00:57:58.374Z,0.00
2019-05-18T00:58:58.374Z,0.00
2019-05-18T00:59:58.341Z,0.00
2019-05-18T01:00:58.324Z,0.00
2019-05-18T01:01:58.303Z,0.00
2019-05-18T01:02:58.285Z,0.00
2019-05-18T01:03:58.265Z,0.00
2019-05-18T01:04:58.255Z,0.00
2019-05-18T01:05:58.231Z,0.00
2019-05-18T01:06:58.215Z,0.00
2019-05-18T01:07:58.192Z,0.00
2019-05-18T01:08:58.174Z,0.00
2019-05-18T01:09:58.157Z,0.00
2019-05-18T01:10:58.140Z,0.00
2019-05-18T01:11:58.119Z,0.00
2019-05-18T01:12:58.106Z,0.00
2019-05-18T01:13:58.081Z,0.00
2019-05-18T01:14:58.067Z,0.00
2019-05-18T01:15:58.045Z,0.00
2019-05-18T01:16:58.030Z,0.00
2019-05-18T01:18:01.433Z,0.00
2019-05-18T01:18:57.990Z,0.00
2019-05-18T01:19:57.979Z,0.00
2019-05-18T01:20:57.960Z,0.00
2019-05-18T01:21:57.939Z,0.00
2019-05-18T01:22:57.919Z,0.00
2019-05-18T01:23:57.899Z,0.00
2019-05-18T01:24:57.880Z,0.00
2019-05-18T01:25:57.865Z,0.00
2019-05-18T01:26:57.843Z,0.00
2019-05-18T01:27:57.825Z,0.00
2019-05-18T01:28:57.808Z,0.00
2019-05-18T01:29:57.791Z,0.00
2019-05-18T01:30:57.770Z,0.00
2019-05-18T01:31:57.752Z,0.00
2019-05-18T01:32:57.733Z,0.00
2019-05-18T01:33:57.717Z,0.00
2019-05-18T01:34:57.696Z,0.00
2019-05-18T01:35:57.682Z,0.00
2019-05-18T01:36:57.662Z,0.00
2019-05-18T01:37:57.641Z,0.00
2019-05-18T01:38:57.627Z,0.00
2019-05-18T01:39:57.605Z,0.00
2019-05-18T01:40:57.591Z,0.00
2019-05-18T01:41:57.570Z,0.00
2019-05-18T01:42:57.551Z,0.00
2019-05-18T01:43:57.531Z,0.00
2019-05-18T01:44:57.515Z,0.00
2019-05-18T01:45:57.494Z,0.00
2019-05-18T01:46:57.477Z,0.00
2019-05-18T01:48:12.287Z,0.00
2019-05-18T01:48:57.442Z,0.00
2019-05-18T01:49:57.425Z,0.00
2019-05-18T01:50:57.406Z,0.00
2019-05-18T01:51:57.387Z,0.00
2019-05-18T01:52:57.367Z,0.00
2019-05-18T01:53:57.347Z,0.00
2019-05-18T01:54:57.332Z,0.00
2019-05-18T01:55:57.310Z,0.00
2019-05-18T01:56:57.293Z,0.00
2019-05-18T01:57:57.274Z,0.00
2019-05-18T01:58:57.259Z,0.00
2019-05-18T01:59:57.239Z,0.00
2019-05-18T02:00:57.218Z,0.00
2019-05-18T02:01:57.211Z,0.00
2019-05-18T02:02:57.184Z,0.00
2019-05-18T02:03:57.163Z,0.00
2019-05-18T02:04:57.151Z,0.00
2019-05-18T02:05:57.127Z,0.00
2019-05-18T02:06:57.107Z,0.00
2019-05-18T02:07:57.089Z,0.00
2019-05-18T02:08:57.073Z,0.00
2019-05-18T02:09:57.051Z,0.00
2019-05-18T02:10:57.034Z,0.00
2019-05-18T02:11:57.047Z,0.00
2019-05-18T02:12:57.002Z,0.00
2019-05-18T02:13:56.976Z,0.00
2019-05-18T02:14:56.958Z,0.00
2019-05-18T02:15:56.943Z,0.00
2019-05-18T02:16:56.921Z,0.00
2019-05-18T02:17:56.902Z,0.00
2019-05-18T02:18:56.884Z,0.00
2019-05-18T02:19:56.867Z,0.00
2019-05-18T02:20:56.847Z,0.00
2019-05-18T02:21:56.834Z,0.00
2019-05-18T02:22:56.809Z,0.00
2019-05-18T02:23:56.792Z,0.00
2019-05-18T02:24:56.773Z,0.00
2019-05-18T02:25:56.753Z,0.00
2019-05-18T02:26:56.743Z,0.00
2019-05-18T02:27:56.717Z,0.00
2019-05-18T02:28:56.700Z,0.00
2019-05-18T02:29:56.679Z,0.00
2019-05-18T02:30:56.662Z,0.00
2019-05-18T02:31:56.648Z,0.00
2019-05-18T02:32:56.626Z,0.00
2019-05-18T02:33:56.607Z,0.00
2019-05-18T02:34:56.589Z,0.00
2019-05-18T02:35:56.573Z,0.00
2019-05-18T02:36:56.557Z,0.00
2019-05-18T02:37:56.531Z,0.00
2019-05-18T02:38:56.516Z,0.00
2019-05-18T02:39:56.497Z,0.00
2019-05-18T02:40:56.495Z,0.00
2019-05-18T02:41:56.460Z,0.00
2019-05-18T02:42:56.441Z,0.00
2019-05-18T02:43:56.421Z,0.00
2019-05-18T02:44:56.408Z,0.00
2019-05-18T02:45:56.381Z,0.00
2019-05-18T02:46:56.364Z,0.00
2019-05-18T02:47:56.346Z,0.00
2019-05-18T02:48:56.327Z,0.00
2019-05-18T02:49:56.315Z,0.00
2019-05-18T02:50:56.301Z,0.00
2019-05-18T02:51:56.296Z,0.00
2019-05-18T02:52:56.253Z,0.00
2019-05-18T02:53:56.234Z,0.00
2019-05-18T02:54:56.217Z,0.00
2019-05-18T02:55:56.197Z,0.00
2019-05-18T02:56:56.178Z,0.00
2019-05-18T02:57:56.159Z,0.00
2019-05-18T02:58:56.143Z,0.00
2019-05-18T02:59:56.122Z,0.00
2019-05-18T03:00:56.106Z,0.00
2019-05-18T03:01:56.087Z,0.00
2019-05-18T03:02:56.067Z,0.00
2019-05-18T03:03:56.050Z,0.00
2019-05-18T03:04:56.031Z,0.00
2019-05-18T03:05:56.010Z,0.00
2019-05-18T03:06:55.996Z,0.00
2019-05-18T03:07:55.975Z,0.00
2019-05-18T03:08:55.964Z,0.00
2019-05-18T03:09:55.938Z,0.00
2019-05-18T03:10:55.921Z,0.00
2019-05-18T03:11:55.904Z,0.00
2019-05-18T03:12:55.884Z,0.00
2019-05-18T03:13:55.864Z,0.00
2019-05-18T03:14:55.850Z,0.00
2019-05-18T03:15:55.828Z,0.00
2019-05-18T03:16:55.814Z,0.00
2019-05-18T03:17:55.790Z,0.00
2019-05-18T03:19:07.719Z,0.00
2019-05-18T03:19:55.753Z,0.00
2019-05-18T03:20:55.734Z,0.00
2019-05-18T03:21:55.723Z,0.00
2019-05-18T03:22:55.764Z,0.00
2019-05-18T03:23:55.679Z,0.00
2019-05-18T03:24:55.663Z,0.00
2019-05-18T03:25:55.644Z,0.00
2019-05-18T03:26:55.628Z,0.00
2019-05-18T03:27:55.608Z,0.00
2019-05-18T03:28:55.589Z,0.00
2019-05-18T03:29:55.570Z,0.00
2019-05-18T03:30:55.569Z,0.00
2019-05-18T03:31:55.532Z,0.00
2019-05-18T03:32:55.532Z,0.00
2019-05-18T03:33:55.495Z,0.00
2019-05-18T03:34:55.505Z,0.00
2019-05-18T03:35:55.471Z,0.00
2019-05-18T03:36:55.440Z,0.00
2019-05-18T03:37:55.422Z,0.00
2019-05-18T03:38:55.403Z,0.00
2019-05-18T03:39:55.391Z,0.00
2019-05-18T03:40:55.375Z,0.00
2019-05-18T03:41:55.353Z,0.00
2019-05-18T03:42:55.332Z,5.63
2019-05-18T03:43:55.310Z,5.63
2019-05-18T03:44:55.292Z,5.63
2019-05-18T03:45:55.274Z,5.63
2019-05-18T03:46:55.258Z,5.63
2019-05-18T03:47:55.243Z,5.63
2019-05-18T03:48:55.222Z,5.63
2019-05-18T03:49:55.201Z,5.63
2019-05-18T03:50:55.185Z,5.63
2019-05-18T03:51:55.172Z,11.25
2019-05-18T03:52:55.145Z,11.25
2019-05-18T03:53:55.129Z,11.25
2019-05-18T03:54:55.110Z,11.25
2019-05-18T03:55:55.090Z,11.25
2019-05-18T03:56:55.073Z,11.25
2019-05-18T03:57:55.052Z,11.25
2019-05-18T03:58:55.035Z,11.25
2019-05-18T03:59:55.018Z,11.25
2019-05-18T04:00:55.000Z,11.25
2019-05-18T04:01:54.979Z,16.88
2019-05-18T04:02:54.963Z,16.88
2019-05-18T04:03:54.945Z,16.88
2019-05-18T04:04:54.929Z,16.88
2019-05-18T04:05:54.908Z,16.88
2019-05-18T04:06:54.887Z,16.88
2019-05-18T04:07:54.873Z,16.88
2019-05-18T04:08:54.853Z,16.88
2019-05-18T04:09:54.832Z,22.50
2019-05-18T04:10:54.817Z,22.50
2019-05-18T04:11:54.800Z,22.50
2019-05-18T04:12:54.782Z,22.50
2019-05-18T04:13:54.766Z,22.50
2019-05-18T04:14:54.745Z,28.13
2019-05-18T04:15:54.725Z,28.13
2019-05-18T04:16:54.705Z,28.13
2019-05-18T04:17:54.684Z,28.13
2019-05-18T04:18:54.668Z,28.13
2019-05-18T04:19:54.651Z,33.75
2019-05-18T04:20:54.635Z,33.75
2019-05-18T04:21:54.613Z,33.75
2019-05-18T04:22:54.594Z,39.38
2019-05-18T04:23:54.579Z,39.38
2019-05-18T04:24:54.558Z,39.38
2019-05-18T04:25:54.538Z,39.38
2019-05-18T04:26:54.522Z,45.00
2019-05-18T04:27:54.502Z,45.00
2019-05-18T04:28:54.483Z,45.00
2019-05-18T04:29:54.465Z,45.00
2019-05-18T04:30:54.445Z,45.00
2019-05-18T04:31:54.449Z,45.00
2019-05-18T04:32:54.409Z,45.00
2019-05-18T04:33:54.424Z,45.00
2019-05-18T04:34:54.372Z,45.00
2019-05-18T04:35:54.353Z,45.00
2019-05-18T04:36:54.339Z,45.00
2019-05-18T04:37:54.317Z,45.00
2019-05-18T04:38:54.300Z,45.00
2019-05-18T04:39:54.286Z,50.63
2019-05-18T04:40:54.267Z,50.63
2019-05-18T04:41:54.257Z,56.25
2019-05-18T04:42:54.226Z,61.88
2019-05-18T04:43:54.209Z,67.50
2019-05-18T04:44:54.190Z,73.13
2019-05-18T04:45:54.171Z,78.75
2019-05-18T04:46:54.155Z,90.00
2019-05-18T04:47:54.136Z,90.00
2019-05-18T04:48:54.122Z,90.00
2019-05-18T04:50:04.506Z,90.00
2019-05-18T04:50:54.084Z,90.00
2019-05-18T04:51:54.064Z,90.00
2019-05-18T04:52:54.045Z,90.00
2019-05-18T04:53:54.025Z,90.00
2019-05-18T04:54:54.018Z,90.00
2019-05-18T04:55:53.991Z,90.00
2019-05-18T04:56:53.972Z,95.63
2019-05-18T04:57:53.956Z,95.63
2019-05-18T04:58:53.939Z,95.63
2019-05-18T04:59:53.921Z,90.00
2019-05-18T05:00:53.900Z,90.00
2019-05-18T05:01:53.885Z,90.00
2019-05-18T05:02:53.867Z,95.63
2019-05-18T05:03:53.852Z,95.63
2019-05-18T05:04:56.610Z,101.25
2019-05-18T05:05:53.813Z,106.88
2019-05-18T05:06:53.792Z,112.50
2019-05-18T05:07:53.780Z,118.13
2019-05-18T05:08:53.756Z,129.38
2019-05-18T05:09:53.740Z,135.00
2019-05-18T05:10:53.721Z,135.00
2019-05-18T05:11:53.704Z,140.63
2019-05-18T05:12:53.692Z,146.25
2019-05-18T05:13:53.669Z,151.88
2019-05-18T05:14:53.649Z,163.13
2019-05-18T05:15:53.633Z,174.38
2019-05-18T05:16:53.619Z,180.00
2019-05-18T05:17:53.596Z,185.63
2019-05-18T05:18:53.581Z,191.25
2019-05-18T05:19:53.561Z,196.88
2019-05-18T05:20:53.546Z,202.50
2019-05-18T05:21:53.536Z,208.13
2019-05-18T05:22:53.508Z,213.75
2019-05-18T05:23:53.493Z,213.75
2019-05-18T05:24:53.474Z,213.75
2019-05-18T05:25:53.458Z,219.38
2019-05-18T05:26:53.441Z,208.13
2019-05-18T05:27:53.421Z,208.13
2019-05-18T05:28:53.403Z,208.13
2019-05-18T05:29:53.385Z,208.13
2019-05-18T05:30:53.369Z,208.13
2019-05-18T05:31:53.354Z,208.13
2019-05-18T05:32:53.345Z,208.13
2019-05-18T05:33:53.316Z,208.13
2019-05-18T05:34:53.301Z,213.75
2019-05-18T05:35:53.285Z,219.38
2019-05-18T05:36:53.271Z,230.63
2019-05-18T05:37:53.251Z,247.50
2019-05-18T05:38:53.237Z,264.38
2019-05-18T05:39:53.215Z,281.25
2019-05-18T05:40:53.198Z,292.50
2019-05-18T05:41:53.181Z,292.50
2019-05-18T05:42:53.163Z,292.50
2019-05-18T05:43:53.149Z,298.13
2019-05-18T05:44:53.131Z,298.13
2019-05-18T05:45:53.118Z,298.13
2019-05-18T05:46:53.111Z,298.13
2019-05-18T05:47:53.080Z,298.13
2019-05-18T05:48:53.066Z,298.13
2019-05-18T05:49:53.058Z,309.38
2019-05-18T05:50:53.031Z,320.63
2019-05-18T05:51:53.015Z,320.63
2019-05-18T05:52:52.997Z,320.63
2019-05-18T05:53:52.985Z,320.63
2019-05-18T05:54:52.966Z,320.63
2019-05-18T05:55:52.949Z,320.63
2019-05-18T05:56:52.932Z,320.63
2019-05-18T05:57:52.917Z,320.63
2019-05-18T05:58:52.900Z,326.25
2019-05-18T05:59:52.882Z,331.88
2019-05-18T06:00:52.869Z,331.88
2019-05-18T06:01:52.850Z,343.13
2019-05-18T06:02:52.859Z,354.38
2019-05-18T06:03:52.820Z,365.63
2019-05-18T06:04:52.801Z,371.25
2019-05-18T06:05:52.789Z,371.25
2019-05-18T06:06:52.771Z,382.50
2019-05-18T06:07:52.799Z,399.38
2019-05-18T06:08:52.737Z,410.63
2019-05-18T06:09:52.740Z,410.63
2019-05-18T06:10:52.712Z,410.63
2019-05-18T06:11:52.701Z,410.63
2019-05-18T06:12:52.672Z,405.00
2019-05-18T06:13:52.657Z,388.13
2019-05-18T06:14:52.639Z,360.00
2019-05-18T06:15:52.642Z,365.63
2019-05-18T06:16:52.613Z,399.38
2019-05-18T06:17:52.591Z,405.00
2019-05-18T06:18:52.577Z,399.38
2019-05-18T06:19:52.563Z,393.75
2019-05-18T06:20:52.550Z,376.88
2019-05-18T06:21:52.584Z,365.63
2019-05-18T06:22:52.516Z,354.38
2019-05-18T06:23:52.498Z,348.75
2019-05-18T06:24:52.484Z,343.13
2019-05-18T06:25:52.469Z,331.88
2019-05-18T06:26:52.450Z,326.25
2019-05-18T06:27:52.445Z,320.63
2019-05-18T06:28:52.424Z,315.00
2019-05-18T06:29:52.425Z,320.63
2019-05-18T06:30:52.392Z,326.25
2019-05-18T06:31:52.379Z,331.88
2019-05-18T06:32:52.361Z,348.75
2019-05-18T06:33:52.343Z,360.00
2019-05-18T06:34:52.330Z,371.25
2019-05-18T06:35:52.313Z,382.50
2019-05-18T06:36:55.695Z,393.75
2019-05-18T06:37:52.288Z,405.00
2019-05-18T06:38:52.265Z,410.63
2019-05-18T06:39:52.253Z,416.25
2019-05-18T06:40:52.278Z,421.88
2019-05-18T06:41:52.217Z,421.88
2019-05-18T06:42:52.205Z,433.13
2019-05-18T06:43:52.187Z,438.75
2019-05-18T06:44:52.169Z,438.75
2019-05-18T06:45:52.156Z,444.38
2019-05-18T06:46:52.139Z,444.38
2019-05-18T06:47:52.124Z,438.75
2019-05-18T06:48:52.117Z,433.13
2019-05-18T06:49:52.094Z,433.13
2019-05-18T06:51:06.042Z,427.50
2019-05-18T06:51:52.062Z,438.75
2019-05-18T06:52:52.048Z,450.00
2019-05-18T06:53:52.039Z,461.25
2019-05-18T06:54:52.021Z,483.75
2019-05-18T06:55:52.006Z,506.25
2019-05-18T06:56:51.993Z,506.25
2019-05-18T06:57:52.005Z,500.63
2019-05-18T06:58:51.960Z,500.63
2019-05-18T06:59:51.945Z,500.63
2019-05-18T07:00:51.932Z,511.88
2019-05-18T07:01:51.914Z,545.63
2019-05-18T07:02:51.902Z,562.50
2019-05-18T07:03:51.900Z,545.63
2019-05-18T07:04:51.870Z,534.38
2019-05-18T07:05:51.855Z,511.88
2019-05-18T07:06:51.845Z,500.63
2019-05-18T07:07:51.828Z,483.75
2019-05-18T07:08:51.814Z,478.13
2019-05-18T07:09:51.798Z,483.75
2019-05-18T07:10:51.784Z,478.13
2019-05-18T07:11:51.775Z,466.88
2019-05-18T07:12:51.756Z,461.25
2019-05-18T07:13:51.742Z,461.25
2019-05-18T07:14:51.730Z,466.88
2019-05-18T07:15:51.713Z,472.50
2019-05-18T07:16:51.701Z,472.50
2019-05-18T07:17:51.683Z,483.75
2019-05-18T07:18:51.670Z,478.13
2019-05-18T07:19:51.655Z,466.88
2019-05-18T07:20:51.645Z,461.25
2019-05-18T07:21:51.628Z,450.00
2019-05-18T07:22:51.612Z,444.38
2019-05-18T07:23:51.598Z,444.38
2019-05-18T07:24:51.584Z,455.63
2019-05-18T07:25:51.571Z,483.75
2019-05-18T07:26:51.558Z,500.63
2019-05-18T07:27:51.540Z,511.88
2019-05-18T07:28:51.529Z,534.38
2019-05-18T07:29:51.518Z,551.25
2019-05-18T07:30:51.502Z,573.75
2019-05-18T07:31:51.485Z,607.50
2019-05-18T07:32:51.471Z,630.00
2019-05-18T07:33:51.462Z,652.50
2019-05-18T07:34:51.445Z,686.25
2019-05-18T07:35:51.429Z,697.50
2019-05-18T07:36:51.425Z,714.38
2019-05-18T07:37:51.402Z,742.50
2019-05-18T07:38:51.387Z,748.13
2019-05-18T07:39:51.375Z,849.38
2019-05-18T07:40:51.361Z,776.25
2019-05-18T07:41:51.352Z,821.25
2019-05-18T07:42:51.342Z,843.75
2019-05-18T07:43:51.327Z,888.75
2019-05-18T07:44:51.311Z,871.88
2019-05-18T07:45:51.303Z,888.75
2019-05-18T07:46:51.292Z,883.13
2019-05-18T07:47:51.276Z,838.13
2019-05-18T07:48:51.263Z,1001.25
2019-05-18T07:49:51.256Z,1417.50
2019-05-18T07:50:51.242Z,1029.38
2019-05-18T07:51:51.231Z,978.75
2019-05-18T07:52:51.225Z,961.88
2019-05-18T07:53:51.211Z,1456.88
2019-05-18T07:54:51.202Z,900.00
2019-05-18T07:55:51.198Z,1063.13
2019-05-18T07:56:51.186Z,1125.00
2019-05-18T07:57:51.178Z,1215.00
2019-05-18T07:58:51.170Z,956.25
2019-05-18T07:59:51.160Z,1080.00
2019-05-18T08:00:51.155Z,1395.00
2019-05-18T08:01:51.142Z,1299.38
2019-05-18T08:02:51.136Z,1501.88
2019-05-18T08:03:51.131Z,1012.50
2019-05-18T08:04:51.122Z,1198.13
2019-05-18T08:05:51.122Z,1035.00
2019-05-18T08:06:51.120Z,753.75
2019-05-18T08:07:51.113Z,776.25
2019-05-18T08:08:51.101Z,815.63
2019-05-18T08:09:51.106Z,860.63
2019-05-18T08:10:51.095Z,939.38
2019-05-18T08:11:51.094Z,1209.38
2019-05-18T08:12:51.070Z,1023.75
2019-05-18T08:13:51.058Z,1012.50
2019-05-18T08:14:51.049Z,1614.38
2019-05-18T08:15:51.041Z,1726.88
2019-05-18T08:16:51.035Z,1462.50
2019-05-18T08:17:51.030Z,1569.38
2019-05-18T08:18:51.025Z,1378.13
2019-05-18T08:19:51.018Z,1293.75
2019-05-18T08:20:51.013Z,1603.13
2019-05-18T08:21:53.490Z,1192.50
2019-05-18T08:22:51.000Z,1485.00
2019-05-18T08:23:50.993Z,1355.63
2019-05-18T08:24:50.989Z,1518.75
2019-05-18T08:25:50.982Z,1023.75
2019-05-18T08:26:50.978Z,1006.88
2019-05-18T08:27:50.971Z,883.13
2019-05-18T08:28:50.964Z,815.63
2019-05-18T08:29:50.958Z,798.75
2019-05-18T08:30:50.953Z,967.50
2019-05-18T08:31:50.946Z,1310.63
2019-05-18T08:32:50.943Z,1136.25
2019-05-18T08:33:50.931Z,1299.38
2019-05-18T08:34:50.922Z,883.13
2019-05-18T08:35:50.942Z,1215.00
2019-05-18T08:36:50.908Z,1389.38
2019-05-18T08:37:50.903Z,860.63
2019-05-18T08:38:50.894Z,984.38
2019-05-18T08:39:50.890Z,866.25
2019-05-18T08:40:50.882Z,641.25
2019-05-18T08:41:50.872Z,601.88
2019-05-18T08:42:50.862Z,618.75
2019-05-18T08:43:50.887Z,624.38
2019-05-18T08:44:50.846Z,652.50
2019-05-18T08:45:50.865Z,691.88
2019-05-18T08:46:50.826Z,697.50
2019-05-18T08:47:50.818Z,691.88
2019-05-18T08:48:50.810Z,691.88
2019-05-18T08:49:50.796Z,703.13
2019-05-18T08:50:50.789Z,714.38
2019-05-18T08:51:50.781Z,731.25
2019-05-18T08:52:50.767Z,736.88
2019-05-18T08:53:50.759Z,725.63
2019-05-18T08:54:50.748Z,686.25
2019-05-18T08:55:50.736Z,646.88
2019-05-18T08:56:50.723Z,607.50
2019-05-18T08:57:50.711Z,568.13
2019-05-18T08:58:50.706Z,534.38
2019-05-18T08:59:50.689Z,517.50
2019-05-18T09:00:50.681Z,511.88
2019-05-18T09:01:50.666Z,511.88
2019-05-18T09:02:50.661Z,523.13
2019-05-18T09:03:50.646Z,545.63
2019-05-18T09:04:50.635Z,573.75
2019-05-18T09:05:50.625Z,607.50
2019-05-18T09:06:50.608Z,641.25
2019-05-18T09:07:50.597Z,680.63
2019-05-18T09:08:50.584Z,714.38
2019-05-18T09:09:50.574Z,742.50
2019-05-18T09:10:50.561Z,770.63
2019-05-18T09:11:50.561Z,810.00
2019-05-18T09:12:50.533Z,849.38
2019-05-18T09:13:50.521Z,905.63
2019-05-18T09:14:50.582Z,973.13
2019-05-18T09:15:50.507Z,1091.25
2019-05-18T09:16:50.485Z,1350.00
2019-05-18T09:17:50.475Z,1366.88
2019-05-18T09:18:50.465Z,1620.00
2019-05-18T09:19:50.454Z,1378.13
2019-05-18T09:20:50.439Z,1209.38
2019-05-18T09:21:50.430Z,1181.25
2019-05-18T09:22:50.419Z,1181.25
2019-05-18T09:23:50.408Z,1265.63
2019-05-18T09:24:50.429Z,1299.38
2019-05-18T09:25:50.392Z,1237.50
2019-05-18T09:26:50.377Z,1203.75
2019-05-18T09:27:50.371Z,1372.50
2019-05-18T09:28:50.362Z,1321.88
2019-05-18T09:29:50.348Z,1226.25
2019-05-18T09:30:50.341Z,1305.00
2019-05-18T09:31:50.334Z,1102.50
2019-05-18T09:32:50.322Z,1085.63
2019-05-18T09:33:50.318Z,1057.50
2019-05-18T09:34:50.304Z,1035.00
2019-05-18T09:35:50.299Z,1023.75
2019-05-18T09:36:50.293Z,1046.25
2019-05-18T09:37:50.289Z,1029.38
2019-05-18T09:38:50.268Z,1018.13
2019-05-18T09:39:50.264Z,1018.13
2019-05-18T09:40:50.252Z,1023.75
2019-05-18T09:41:50.240Z,1012.50
2019-05-18T09:42:50.232Z,1006.88
2019-05-18T09:43:50.222Z,1029.38
2019-05-18T09:44:50.216Z,1350.00
2019-05-18T09:45:50.203Z,1366.88
2019-05-18T09:46:50.195Z,1456.88
2019-05-18T09:47:50.191Z,1462.50
2019-05-18T09:48:50.181Z,1524.38
2019-05-18T09:49:50.170Z,1485.00
2019-05-18T09:50:50.163Z,1620.00
2019-05-18T09:51:50.156Z,1715.63
2019-05-18T09:52:50.153Z,1473.75
2019-05-18T09:53:51.844Z,1546.88
2019-05-18T09:54:50.134Z,1310.63
2019-05-18T09:55:50.126Z,1350.00
2019-05-18T09:56:50.119Z,1316.25
2019-05-18T09:57:50.111Z,1276.88
2019-05-18T09:58:50.105Z,1288.13
2019-05-18T09:59:50.100Z,1321.88
2019-05-18T10:00:50.091Z,1321.88
2019-05-18T10:01:50.084Z,1462.50
2019-05-18T10:02:50.099Z,1389.38
2019-05-18T10:03:50.069Z,1372.50
2019-05-18T10:04:50.168Z,1327.50
2019-05-18T10:05:50.056Z,1282.50
2019-05-18T10:06:50.048Z,1417.50
2019-05-18T10:07:50.041Z,2317.50
2019-05-18T10:08:50.038Z,2025.00
2019-05-18T10:09:50.029Z,2452.50
2019-05-18T10:10:50.024Z,1951.88
2019-05-18T10:11:50.020Z,2390.63
2019-05-18T10:12:50.027Z,2002.50
2019-05-18T10:13:50.009Z,1389.38
2019-05-18T10:14:50.007Z,1456.88
2019-05-18T10:15:49.999Z,1490.63
2019-05-18T10:16:49.993Z,2160.00
2019-05-18T10:17:49.989Z,2289.38
2019-05-18T10:18:49.982Z,2261.25
2019-05-18T10:19:49.979Z,2182.50
2019-05-18T10:20:49.973Z,2171.25
2019-05-18T10:21:49.975Z,2098.13
2019-05-18T10:22:55.846Z,2075.63
2019-05-18T10:23:49.962Z,1372.50
2019-05-18T10:24:49.959Z,2205.00
2019-05-18T10:25:49.953Z,2216.25
2019-05-18T10:26:49.950Z,2137.50
2019-05-18T10:27:49.993Z,2103.75
2019-05-18T10:28:49.942Z,2120.63
2019-05-18T10:29:49.983Z,2143.13
2019-05-18T10:30:49.938Z,2171.25
2019-05-18T10:31:49.928Z,2227.50
2019-05-18T10:32:49.929Z,1732.50
2019-05-18T10:33:49.937Z,2120.63
2019-05-18T10:34:49.917Z,2278.13
2019-05-18T10:35:49.913Z,2373.75
2019-05-18T10:36:49.914Z,1755.00
2019-05-18T10:37:49.909Z,1580.63
2019-05-18T10:38:49.910Z,2598.75
2019-05-18T10:39:49.898Z,2058.75
2019-05-18T10:40:49.898Z,1282.50
2019-05-18T10:41:49.893Z,1248.75
2019-05-18T10:42:49.889Z,2244.38
2019-05-18T10:43:49.884Z,2677.50
2019-05-18T10:44:49.876Z,2660.63
2019-05-18T10:45:49.873Z,1417.50
2019-05-18T10:46:49.867Z,1642.50
2019-05-18T10:47:49.866Z,2120.63
2019-05-18T10:48:49.866Z,1676.25
2019-05-18T10:49:49.859Z,1440.00
2019-05-18T10:50:49.878Z,973.13
2019-05-18T10:51:49.853Z,855.00
2019-05-18T10:52:49.842Z,843.75
2019-05-18T10:53:49.839Z,2075.63
2019-05-18T10:54:49.835Z,1653.75
2019-05-18T10:55:49.848Z,2514.38
2019-05-18T10:56:49.836Z,2430.00
2019-05-18T10:57:49.825Z,2328.75
2019-05-18T10:58:49.818Z,1237.50
2019-05-18T10:59:49.809Z,2430.00
2019-05-18T11:00:49.862Z,1192.50
2019-05-18T11:01:49.805Z,1136.25
2019-05-18T11:02:49.798Z,1884.38
2019-05-18T11:03:49.791Z,1327.50
2019-05-18T11:04:49.831Z,2340.00
2019-05-18T11:05:49.802Z,2058.75
2019-05-18T11:06:49.797Z,1895.63
2019-05-18T11:07:49.775Z,2621.25
2019-05-18T11:08:49.766Z,2677.50
2019-05-18T11:09:49.768Z,2778.75
2019-05-18T11:10:49.756Z,2643.75
2019-05-18T11:11:49.749Z,2733.75
2019-05-18T11:12:49.746Z,2728.13
2019-05-18T11:13:49.757Z,2767.50
2019-05-18T11:14:49.737Z,2806.88
2019-05-18T11:15:49.772Z,2823.75
2019-05-18T11:16:49.731Z,2840.63
2019-05-18T11:17:49.727Z,2739.38
2019-05-18T11:18:49.722Z,2716.88
2019-05-18T11:19:49.726Z,2739.38
2019-05-18T11:20:49.715Z,2773.13
2019-05-18T11:21:49.731Z,2756.25
2019-05-18T11:22:49.706Z,2745.00
2019-05-18T11:23:49.709Z,2818.13
2019-05-18T11:24:49.705Z,2784.38
2019-05-18T11:25:49.697Z,1681.88
2019-05-18T11:26:49.697Z,2486.25
2019-05-18T11:27:49.709Z,2548.13
2019-05-18T11:28:49.696Z,2666.25
2019-05-18T11:29:49.720Z,2784.38
2019-05-18T11:30:49.685Z,2728.13
2019-05-18T11:31:49.678Z,2739.38
2019-05-18T11:32:49.677Z,2761.88
2019-05-18T11:33:49.678Z,2497.50
2019-05-18T11:34:49.684Z,1625.63
2019-05-18T11:35:49.675Z,2598.75
2019-05-18T11:36:49.716Z,2688.75
2019-05-18T11:37:49.660Z,2801.25
2019-05-18T11:38:49.879Z,2857.50
2019-05-18T11:39:49.656Z,2908.13
2019-05-18T11:40:49.664Z,2171.25
2019-05-18T11:41:49.657Z,2784.38
2019-05-18T11:42:49.652Z,1451.25
2019-05-18T11:43:49.646Z,1243.13
2019-05-18T11:44:49.644Z,2508.75
2019-05-18T11:45:49.643Z,2002.50
2019-05-18T11:46:49.633Z,1957.50
2019-05-18T11:47:49.639Z,2587.50
2019-05-18T11:48:49.861Z,1372.50
2019-05-18T11:49:49.633Z,1215.00
2019-05-18T11:50:49.621Z,1203.75
2019-05-18T11:51:49.664Z,1209.38
2019-05-18T11:52:49.623Z,2053.13
2019-05-18T11:53:57.796Z,1411.88
2019-05-18T11:54:49.605Z,1417.50
2019-05-18T11:55:49.598Z,2283.75
2019-05-18T11:56:49.607Z,1479.38
2019-05-18T11:57:49.588Z,2278.13
2019-05-18T11:58:49.597Z,1563.75
2019-05-18T11:59:49.593Z,1400.63
2019-05-18T12:00:49.582Z,2013.75
2019-05-18T12:01:49.571Z,1951.88
2019-05-18T12:02:49.574Z,1383.75
2019-05-18T12:03:49.562Z,1271.25
2019-05-18T12:04:49.565Z,1181.25
2019-05-18T12:05:49.582Z,1209.38
2019-05-18T12:06:49.600Z,1282.50
2019-05-18T12:07:49.548Z,3048.75
2019-05-18T12:08:49.636Z,3150.00
2019-05-18T12:09:49.553Z,1479.38
2019-05-18T12:10:49.531Z,1136.25
2019-05-18T12:11:49.525Z,1057.50
2019-05-18T12:12:49.526Z,1125.00
2019-05-18T12:13:49.529Z,1158.75
2019-05-18T12:14:49.512Z,1040.63
2019-05-18T12:15:49.555Z,1057.50
2019-05-18T12:16:49.532Z,1001.25
2019-05-18T12:17:49.497Z,1012.50
2019-05-18T12:18:49.491Z,1029.38
2019-05-18T12:19:49.484Z,984.38
2019-05-18T12:20:49.479Z,894.38
2019-05-18T12:21:49.484Z,804.38
2019-05-18T12:22:49.493Z,736.88
2019-05-18T12:23:49.462Z,691.88
2019-05-18T12:24:49.457Z,663.75
2019-05-18T12:25:50.838Z,635.63
2019-05-18T12:26:49.473Z,641.25
2019-05-18T12:27:49.708Z,652.50
2019-05-18T12:28:49.436Z,663.75
2019-05-18T12:29:49.425Z,658.13
2019-05-18T12:30:49.421Z,641.25
2019-05-18T12:31:49.412Z,624.38
2019-05-18T12:32:49.405Z,607.50
2019-05-18T12:33:49.398Z,607.50
2019-05-18T12:34:49.392Z,613.13
2019-05-18T12:35:49.385Z,624.38
2019-05-18T12:36:49.384Z,624.38
2019-05-18T12:37:49.372Z,630.00
2019-05-18T12:38:49.365Z,630.00